Wildwood Camp, Iowa
Current Conditions -  °F | °C
As of 4:52 PM on Tuesday 21 Oct 2014 (Local Time) from KDVN Reporting Station
Clear Clear  
Wind Chill: 57°   Ceiling: Unl
Heat Index: 57°   Visibility: 10mi
Dew Point: 37°   Wind: 12mph
Humidity: 47%   Direction: 60°ENE
Pressure: 30.18"   Gusts: NA
Location:  41.7317°N, 90.5411°W
Report Text: KDVN 212152Z AUTO 06010KT 10SM CLR 14/03 A3018 RMK AO2 SLP223 T01390028 TSNO
Loading
Personal Weather Stations






























Interactive Weather Map
Tropical Storm Tracking
New forecast layout! Learn more

10-Day Weather Forecast

Advertisements
Track Severe Weather on mobile